Time;durP1;ratioP1;P1;durP2;ratioP2;P2;SDS_P1;SDS_P2;PMS_P1;PMS_P2;Temp;Humidity;BMP_temperature;BMP_pressure;BME280_temperature;BME280_humidity;BME280_pressure;Samples;Min_cycle;Max_cycle;Signal;HPM_P1;HPM_P2
2022/05/12 00:01:24;;;;;;;10.30;7.40;;;;;;;16.43;63.80;100858.63;5033182;28;20048;-82
2022/05/12 00:03:52;;;;;;;10.90;6.53;;;;;;;16.10;65.10;100817.69;5052582;28;20049;-81
2022/05/12 00:06:18;;;;;;;10.20;7.43;;;;;;;16.01;64.72;100824.03;5050259;28;20148;-82
2022/05/12 00:08:44;;;;;;;10.77;6.60;;;;;;;15.92;67.42;100820.63;5031394;28;20395;-82
2022/05/12 00:11:10;;;;;;;16.13;7.22;;;;;;;16.10;69.13;100851.25;5057698;28;20033;-82
2022/05/12 00:13:36;;;;;;;11.73;7.53;;;;;;;15.94;69.92;100840.88;5034674;28;20091;-81
2022/05/12 00:16:03;;;;;;;10.45;6.68;;;;;;;15.82;69.50;100849.88;5014857;28;20405;-79
2022/05/12 00:18:28;;;;;;;13.50;6.82;;;;;;;15.84;69.60;100847.22;5050163;28;20079;-81
2022/05/12 00:20:56;;;;;;;12.70;7.55;;;;;;;15.67;69.55;100838.63;5031703;28;20151;-81
2022/05/12 00:23:27;;;;;;;10.55;7.13;;;;;;;15.73;69.21;100857.09;5048674;28;20082;-80
2022/05/12 00:25:55;;;;;;;10.55;6.93;;;;;;;15.45;70.23;100830.97;5031234;28;20041;-79
2022/05/12 00:28:26;;;;;;;12.55;8.48;;;;;;;15.48;70.62;100840.66;5046388;28;20504;-81
2022/05/12 00:30:55;;;;;;;15.07;7.82;;;;;;;15.76;70.22;100860.56;5034588;28;20186;-81
2022/05/12 00:33:25;;;;;;;12.63;7.30;;;;;;;15.79;68.46;100857.88;5055534;28;20036;-80
2022/05/12 00:35:52;;;;;;;13.82;7.68;;;;;;;15.79;68.39;100862.31;5051254;28;20156;-81
2022/05/12 00:38:20;;;;;;;22.48;7.63;;;;;;;15.46;69.43;100823.94;5044906;28;20028;-79
2022/05/12 00:40:47;;;;;;;20.48;7.97;;;;;;;15.71;67.42;100846.53;5066851;28;20858;-80
2022/05/12 00:43:31;;;;;;;18.08;7.72;;;;;;;15.86;67.43;100871.91;5041399;28;20063;-81
2022/05/12 00:46:00;;;;;;;11.70;7.20;;;;;;;15.83;67.13;100856.94;5056908;28;20059;-81
2022/05/12 00:48:27;;;;;;;21.00;7.88;;;;;;;15.65;67.64;100845.72;5040990;28;20043;-81
2022/05/12 00:50:56;;;;;;;14.63;6.85;;;;;;;15.72;67.85;100845.63;5065736;28;20141;-81
2022/05/12 00:53:24;;;;;;;10.85;7.40;;;;;;;15.82;68.38;100852.53;5075330;28;20097;-81
2022/05/12 00:55:51;;;;;;;16.38;6.20;;;;;;;15.71;67.37;100846.53;5076713;28;20055;-81
2022/05/12 00:58:21;;;;;;;13.13;7.03;;;;;;;15.56;69.00;100839.66;5072136;28;20131;-82
2022/05/12 01:00:49;;;;;;;13.65;8.07;;;;;;;15.61;69.20;100845.75;5075064;28;20054;-80
2022/05/12 01:03:21;;;;;;;13.65;9.13;;;;;;;15.29;70.37;100819.75;5057548;28;20044;-81
2022/05/12 01:05:48;;;;;;;22.35;7.30;;;;;;;15.30;72.16;100847.94;5041581;28;20087;-80
2022/05/12 01:08:18;;;;;;;14.73;7.38;;;;;;;15.16;71.98;100826.06;5077580;28;20095;-81
2022/05/12 01:10:53;;;;;;;12.38;7.40;;;;;;;15.02;70.45;100820.94;5078342;28;20557;-80
2022/05/12 01:13:30;;;;;;;11.40;6.78;;;;;;;15.25;71.82;100852.41;5053822;28;20534;-82
2022/05/12 01:15:59;;;;;;;15.77;7.40;;;;;;;15.04;69.78;100826.22;5087190;28;20498;-80
2022/05/12 01:18:27;;;;;;;11.57;6.25;;;;;;;15.15;69.48;100840.19;5064290;28;20033;-81
2022/05/12 01:20:53;;;;;;;11.60;6.38;;;;;;;15.36;68.17;100868.16;5060486;28;20217;-82
2022/05/12 01:23:24;;;;;;;11.55;6.55;;;;;;;15.43;69.76;100869.81;5067029;28;20043;-81
2022/05/12 01:26:05;;;;;;;23.00;7.80;;;;;;;15.09;69.83;100840.25;5084793;28;20028;-81
2022/05/12 01:28:31;;;;;;;17.70;6.75;;;;;;;15.19;70.16;100868.31;5087102;28;20053;-81
2022/05/12 01:31:04;;;;;;;16.17;7.07;;;;;;;15.03;71.11;100846.50;5085720;28;20099;-82
2022/05/12 01:33:34;;;;;;;12.02;7.00;;;;;;;14.95;71.01;100846.56;5052321;28;20065;-80
2022/05/12 01:36:10;;;;;;;11.80;7.15;;;;;;;15.23;68.79;100858.59;5067456;28;20040;-81
2022/05/12 01:38:36;;;;;;;10.85;6.13;;;;;;;15.35;67.59;100867.25;5075744;28;20052;-81
2022/05/12 01:41:02;;;;;;;19.98;8.65;;;;;;;15.28;69.65;100872.63;5080351;28;20036;-82
2022/05/12 01:43:28;;;;;;;16.27;7.35;;;;;;;14.84;71.52;100827.31;5084594;28;20243;-79
2022/05/12 01:46:00;;;;;;;18.67;6.50;;;;;;;14.93;71.89;100866.84;5066996;28;20028;-80
2022/05/12 01:48:26;;;;;;;14.30;7.03;;;;;;;14.63;72.06;100828.41;5084571;28;20028;-83
2022/05/12 01:50:58;;;;;;;16.00;6.53;;;;;;;14.94;71.78;100860.69;5084837;28;20063;-80
2022/05/12 01:53:25;;;;;;;14.75;7.03;;;;;;;14.92;72.53;100885.38;5069038;28;20043;-81
2022/05/12 01:55:50;;;;;;;17.83;6.18;;;;;;;14.48;72.46;100847.88;5066750;28;20035;-81
2022/05/12 01:58:21;;;;;;;28.65;7.13;;;;;;;14.65;72.32;100868.03;5066293;28;20040;-80
2022/05/12 02:00:51;;;;;;;15.13;6.43;;;;;;;14.39;72.35;100853.25;5066538;28;20089;-80
2022/05/12 02:03:20;;;;;;;11.73;6.00;;;;;;;14.45;72.87;100870.81;5067080;28;20658;-80
2022/05/12 02:05:50;;;;;;;19.15;6.32;;;;;;;14.36;74.77;100867.34;5086599;28;20062;-79
2022/05/12 02:08:20;;;;;;;14.13;7.13;;;;;;;14.30;74.07;100838.34;5082836;28;20048;-80
2022/05/12 02:10:53;;;;;;;11.88;6.60;;;;;;;14.38;73.82;100855.94;5068788;28;20097;-80
2022/05/12 02:13:22;;;;;;;13.30;6.15;;;;;;;14.41;72.68;100867.31;5068519;28;20044;-82
2022/05/12 02:15:52;;;;;;;14.27;7.22;;;;;;;14.41;72.31;100901.63;5069312;28;20050;-79
2022/05/12 02:18:22;;;;;;;11.93;8.18;;;;;;;14.34;72.54;100870.91;5065422;28;20491;-81
2022/05/12 02:20:55;;;;;;;10.07;6.88;;;;;;;14.41;70.86;100883.16;5043425;28;20036;-81
2022/05/12 02:23:21;;;;;;;11.27;7.25;;;;;;;14.47;71.51;100900.69;5062080;28;20127;-80
2022/05/12 02:25:50;;;;;;;8.52;7.22;;;;;;;14.14;72.09;100865.75;5057921;28;20101;-79
2022/05/12 02:28:19;;;;;;;14.05;8.25;;;;;;;14.06;73.32;100872.88;5058111;28;20090;-81
2022/05/12 02:30:45;;;;;;;14.57;6.88;;;;;;;14.35;73.16;100909.59;5079500;28;20433;-80
2022/05/12 02:33:17;;;;;;;19.98;9.65;;;;;;;14.32;73.05;100891.16;5047561;28;20638;-81
2022/05/12 02:35:45;;;;;;;21.52;8.38;;;;;;;14.20;72.96;100920.28;5082521;28;20111;-79
2022/05/12 02:38:13;;;;;;;12.73;7.68;;;;;;;14.18;71.34;100899.16;5068386;28;20111;-80
2022/05/12 02:40:43;;;;;;;15.52;9.82;;;;;;;14.32;70.42;100920.19;5081463;28;20032;-79
2022/05/12 02:43:24;;;;;;;10.77;7.25;;;;;;;13.86;70.57;100868.59;5068125;28;20101;-81
2022/05/12 02:46:01;;;;;;;13.98;8.70;;;;;;;13.97;73.88;100881.72;5068350;28;20074;-80
2022/05/12 02:48:29;;;;;;;20.10;9.15;;;;;;;14.19;73.68;100903.59;5066688;28;20046;-81
2022/05/12 02:51:01;;;;;;;14.73;8.27;;;;;;;14.27;73.00;100888.53;5082538;28;20066;-82
2022/05/12 02:53:28;;;;;;;12.27;7.30;;;;;;;14.43;72.51;100921.00;5082372;28;20044;-79
2022/05/12 02:55:58;;;;;;;12.80;7.25;;;;;;;13.96;72.86;100884.38;5083687;28;20039;-80
2022/05/12 02:58:24;;;;;;;17.73;7.82;;;;;;;13.96;74.50;100901.09;5046501;28;20036;-79
2022/05/12 03:00:52;;;;;;;19.23;8.43;;;;;;;13.71;74.37;100930.22;5068309;28;20039;-79
2022/05/12 03:03:19;;;;;;;19.45;8.38;;;;;;;13.52;73.59;100886.38;5085361;28;20553;-79
2022/05/12 03:05:48;;;;;;;13.02;8.35;;;;;;;13.51;73.87;100896.03;5088619;28;20032;-80
2022/05/12 03:08:17;;;;;;;10.10;8.27;;;;;;;13.52;71.69;100889.00;5085934;28;20333;-80
2022/05/12 03:10:45;;;;;;;13.65;7.43;;;;;;;13.89;71.39;100936.31;5085443;28;20024;-79
2022/05/12 03:13:11;;;;;;;13.77;7.28;;;;;;;14.14;73.02;100942.28;5051633;28;20105;-79
2022/05/12 03:15:43;;;;;;;14.75;8.55;;;;;;;13.70;73.04;100896.81;5067727;28;20267;-80
2022/05/12 03:18:22;;;;;;;11.35;7.63;;;;;;;13.74;74.40;100908.22;5083187;28;20040;-81
2022/05/12 03:20:49;;;;;;;24.13;7.88;;;;;;;13.66;73.56;100907.41;5066579;28;20031;-80
2022/05/12 03:23:18;;;;;;;16.65;7.75;;;;;;;13.76;73.53;100897.69;5081462;28;20040;-80
2022/05/12 03:25:45;;;;;;;17.17;7.78;;;;;;;13.74;73.31;100900.31;5083150;28;20020;-79
2022/05/12 03:28:11;;;;;;;12.55;7.60;;;;;;;13.94;72.22;100900.22;5083041;28;20028;-79
2022/05/12 03:30:42;;;;;;;25.05;9.50;;;;;;;14.09;72.04;100950.28;5049347;28;20086;-80
2022/05/12 03:33:09;;;;;;;17.45;9.73;;;;;;;13.73;73.65;100903.84;5067698;28;20040;-80
2022/05/12 03:35:37;;;;;;;13.93;7.97;;;;;;;13.93;74.26;100923.09;5083869;28;20054;-79
2022/05/12 03:38:15;;;;;;;9.65;6.95;;;;;;;13.96;72.77;100958.25;5066711;28;20028;-80
2022/05/12 03:40:49;;;;;;;15.10;7.55;;;;;;;13.74;72.57;100905.59;5063970;28;20047;-79
2022/05/12 03:46:06;;;;;;;21.08;8.35;;;;;;;13.99;74.10;100932.72;5068912;28;20103;-81
2022/05/12 03:48:39;;;;;;;14.02;7.20;;;;;;;13.94;73.05;100906.34;5064597;28;20079;-81
2022/05/12 03:51:12;;;;;;;18.85;7.57;;;;;;;14.08;73.81;100921.25;5067876;28;20047;-80
2022/05/12 03:53:43;;;;;;;20.00;8.85;;;;;;;14.20;72.03;100942.28;5081532;28;20043;-82
2022/05/12 03:56:10;;;;;;;14.23;7.28;;;;;;;14.17;73.96;100949.34;5064932;28;20093;-81
2022/05/12 03:58:36;;;;;;;14.90;8.07;;;;;;;14.36;69.01;100953.63;5081484;28;20048;-83
2022/05/12 04:01:05;;;;;;;12.63;8.23;;;;;;;14.51;67.67;100953.47;5066242;28;20819;-83
2022/05/12 04:03:31;;;;;;;12.18;8.00;;;;;;;14.72;67.82;100973.59;5066159;28;20100;-81
2022/05/12 04:06:02;;;;;;;23.77;8.40;;;;;;;14.39;68.17;100927.19;5066232;28;20038;-81
2022/05/12 04:08:29;;;;;;;12.20;8.32;;;;;;;14.43;68.20;100923.63;5066776;28;20035;-80
2022/05/12 04:10:54;;;;;;;17.85;8.25;;;;;;;14.28;67.19;100942.22;5081804;28;20032;-80
2022/05/12 04:13:23;;;;;;;12.65;7.80;;;;;;;14.45;66.29;100932.41;5083303;28;20028;-80
2022/05/12 04:15:49;;;;;;;17.25;8.77;;;;;;;14.68;67.33;100942.84;5082552;28;20035;-78
2022/05/12 04:18:15;;;;;;;11.13;7.15;;;;;;;14.49;66.04;100925.34;5065685;28;20502;-78
2022/05/12 04:20:41;;;;;;;13.57;7.65;;;;;;;14.62;65.24;100953.44;5069678;28;20036;-81
2022/05/12 04:23:09;;;;;;;14.10;8.85;;;;;;;14.94;64.76;100957.59;5070650;28;20059;-80
2022/05/12 04:25:35;;;;;;;13.57;8.65;;;;;;;15.03;64.24;100954.88;5081673;28;20389;-79
2022/05/12 04:28:07;;;;;;;11.50;6.82;;;;;;;14.93;64.19;100937.31;5087797;28;20043;-78
2022/05/12 04:30:34;;;;;;;17.55;8.65;;;;;;;14.92;64.04;100935.59;5086654;28;20195;-78
2022/05/12 04:35:11;;;;;;;22.55;7.97;;;;;;;15.19;65.12;100976.72;5086555;28;20040;-77
2022/05/12 04:35:46;;;;;;;19.67;7.47;;;;;;;15.05;66.37;100941.63;5086512;28;20032;-79
2022/05/12 04:38:14;;;;;;;19.08;8.13;;;;;;;15.39;64.69;100980.03;5054055;28;20044;-78
2022/05/12 04:40:40;;;;;;;14.70;8.20;;;;;;;15.10;65.06;100951.28;5085692;28;20110;-77
2022/05/12 04:43:05;;;;;;;18.38;8.57;;;;;;;15.26;64.38;100941.38;5086479;28;20450;-79
2022/05/12 04:45:34;;;;;;;20.15;7.97;;;;;;;15.47;64.00;100958.78;5087600;28;20040;-79
2022/05/12 04:48:01;;;;;;;13.35;8.80;;;;;;;15.89;62.93;100996.25;5083752;28;20028;-78
2022/05/12 04:50:32;;;;;;;14.90;7.95;;;;;;;15.65;64.69;100948.91;5084884;28;20032;-78
2022/05/12 04:53:00;;;;;;;17.10;9.20;;;;;;;15.90;62.90;100986.56;5068190;28;20056;-77
2022/05/12 04:55:29;;;;;;;15.63;8.80;;;;;;;15.62;63.88;100948.03;5067987;28;20040;-79
2022/05/12 04:57:59;;;;;;;12.02;7.57;;;;;;;16.08;62.63;100967.75;5075834;28;20090;-79
2022/05/12 05:00:40;;;;;;;11.05;8.15;;;;;;;16.15;62.68;100985.31;5080542;28;20105;-79
2022/05/12 05:03:13;;;;;;;10.88;7.65;;;;;;;16.34;62.47;100996.53;5051910;28;20051;-79
2022/05/12 05:05:40;;;;;;;12.65;8.88;;;;;;;16.50;60.90;100991.00;5062839;28;20043;-82
2022/05/12 05:08:18;;;;;;;20.73;8.27;;;;;;;16.32;61.90;100945.38;5067201;28;20107;-83
2022/05/12 05:10:44;;;;;;;19.30;8.38;;;;;;;16.63;61.99;100960.78;5065735;28;20495;-82
2022/05/12 05:13:12;;;;;;;14.02;7.88;;;;;;;17.04;60.33;101010.50;5078940;28;20044;-81
2022/05/12 05:15:55;;;;;;;16.05;8.43;;;;;;;17.18;60.59;100999.59;5058643;28;20504;-81
2022/05/12 05:18:25;;;;;;;25.88;8.93;;;;;;;17.39;59.79;100973.59;5077619;28;20047;-82
2022/05/12 05:20:58;;;;;;;14.80;8.07;;;;;;;17.63;57.56;100972.25;5086863;28;20055;-81
2022/05/12 05:23:38;;;;;;;16.27;8.00;;;;;;;18.06;56.97;100990.84;5073353;28;20040;-83
2022/05/12 05:26:07;;;;;;;12.98;7.65;;;;;;;18.05;56.13;100967.88;5070588;28;20020;-83
2022/05/12 05:28:36;;;;;;;12.55;7.95;;;;;;;18.37;55.44;100970.69;5070437;28;20040;-83
2022/05/12 05:31:03;;;;;;;11.68;7.60;;;;;;;18.52;55.15;100981.84;5080801;28;20417;-80
2022/05/12 05:33:29;;;;;;;15.02;7.10;;;;;;;19.01;53.78;101008.16;5065765;28;20486;-82
2022/05/12 05:36:01;;;;;;;9.57;6.85;;;;;;;18.97;53.99;100978.97;5072686;28;20028;-82
2022/05/12 05:38:32;;;;;;;13.55;8.00;;;;;;;19.26;53.79;100995.97;5068156;28;20032;-81
2022/05/12 05:40:59;;;;;;;16.25;7.03;;;;;;;19.24;52.96;100973.84;5060384;28;20328;-81
2022/05/12 05:43:28;;;;;;;19.27;8.27;;;;;;;19.41;53.73;100976.06;5083094;28;20023;-79
2022/05/12 05:45:54;;;;;;;22.77;9.00;;;;;;;19.82;52.80;101014.84;5064896;28;20569;-81
2022/05/12 05:48:21;;;;;;;13.23;6.95;;;;;;;19.78;51.77;100973.25;5056872;28;20071;-76
2022/05/12 05:53:43;;;;;;;16.90;8.82;;;;;;;20.20;50.56;100980.84;5072762;28;20121;-74
2022/05/12 05:56:14;;;;;;;22.27;7.90;;;;;;;20.20;51.57;100990.66;5060187;28;20059;-73
2022/05/12 05:58:43;;;;;;;19.73;7.00;;;;;;;20.20;52.09;100972.88;5069198;28;20633;-73
2022/05/12 06:01:09;;;;;;;14.93;7.63;;;;;;;20.42;51.53;100974.88;5060108;28;20399;-74
2022/05/12 06:03:35;;;;;;;13.98;6.55;;;;;;;20.33;48.29;100976.03;5080326;28;25542;-75
2022/05/12 06:06:01;;;;;;;9.95;5.97;;;;;;;20.84;47.50;101007.31;5079309;28;20563;-74
2022/05/12 06:08:27;;;;;;;12.60;6.88;;;;;;;21.08;47.58;100991.41;5060600;28;20044;-74
2022/05/12 06:10:52;;;;;;;9.52;6.78;;;;;;;21.11;48.70;100993.09;5058118;28;20048;-76
2022/05/12 06:13:18;;;;;;;9.65;6.10;;;;;;;21.08;49.10;100988.72;5040990;28;20052;-74
2022/05/12 06:15:44;;;;;;;18.80;6.35;;;;;;;21.04;47.34;100977.28;5076728;28;20668;-74
2022/05/12 06:18:15;;;;;;;12.25;4.85;;;;;;;21.32;44.95;100970.13;5063790;28;20035;-74
2022/05/12 06:20:44;;;;;;;10.82;5.15;;;;;;;21.24;47.16;100960.56;5061263;28;20056;-73
2022/05/12 06:23:12;;;;;;;9.93;5.35;;;;;;;21.19;44.42;100983.91;5059496;28;20439;-73
2022/05/12 06:25:39;;;;;;;13.38;4.75;;;;;;;21.51;44.96;100963.19;5079491;28;20047;-73
2022/05/12 06:28:06;;;;;;;8.45;5.18;;;;;;;21.85;44.69;101010.91;5042681;28;20052;-76
2022/05/12 06:30:32;;;;;;;11.15;4.05;;;;;;;21.98;44.32;101007.78;5077291;28;20556;-77
2022/05/12 06:32:58;;;;;;;12.32;5.20;;;;;;;21.98;43.43;100979.25;5060805;28;20058;-75
2022/05/12 06:35:25;;;;;;;10.38;5.32;;;;;;;22.06;43.29;100995.00;5076291;28;20075;-74
2022/05/12 06:37:51;;;;;;;11.73;5.22;;;;;;;22.11;42.85;100967.16;5058110;28;20052;-73
2022/05/12 06:40:18;;;;;;;8.70;4.72;;;;;;;22.61;41.86;101005.34;5078371;28;20076;-73
2022/05/12 06:42:45;;;;;;;9.07;5.10;;;;;;;22.58;42.34;100998.31;5075965;28;20182;-75
2022/05/12 06:45:20;;;;;;;10.02;4.40;;;;;;;22.20;44.06;100967.75;5060591;28;20108;-74
2022/05/12 06:47:50;;;;;;;10.00;4.50;;;;;;;22.40;42.63;100999.91;5062007;28;20040;-76
2022/05/12 06:50:25;;;;;;;10.85;4.78;;;;;;;22.19;43.27;100961.50;5075831;28;20060;-74
2022/05/12 06:52:53;;;;;;;11.77;4.22;;;;;;;22.17;42.40;100975.88;5061902;28;20585;-74
2022/05/12 06:55:20;;;;;;;13.35;4.43;;;;;;;22.18;41.73;100959.78;5079164;28;20052;-77
2022/05/12 06:57:47;;;;;;;11.75;3.47;;;;;;;22.43;41.46;101002.50;5079785;28;20052;-75
2022/05/12 07:00:16;;;;;;;8.85;3.85;;;;;;;22.56;41.52;101005.53;5046117;28;20096;-74
2022/05/12 07:02:44;;;;;;;11.25;4.60;;;;;;;22.63;39.55;100977.59;5061222;28;20883;-75
2022/05/12 07:05:12;;;;;;;8.30;4.82;;;;;;;22.76;38.81;100994.03;5082993;28;20047;-74
2022/05/12 07:07:38;;;;;;;12.80;3.42;;;;;;;22.73;38.21;100992.34;5029743;28;20076;-75
2022/05/12 07:10:04;;;;;;;12.00;4.90;;;;;;;23.00;38.40;100985.94;5058733;28;20815;-75
2022/05/12 07:12:30;;;;;;;15.52;4.43;;;;;;;22.76;38.33;100962.78;5079646;28;20036;-75
2022/05/12 07:14:58;;;;;;;6.68;3.20;;;;;;;22.76;39.01;100961.94;5061217;28;20040;-75
2022/05/12 07:17:23;;;;;;;17.25;4.43;;;;;;;22.86;39.40;100997.19;5076291;28;20048;-76
2022/05/12 07:19:52;;;;;;;5.53;3.17;;;;;;;23.02;39.18;101001.00;5035665;28;20059;-75
2022/05/12 07:27:47;;;;;;;4.22;3.22;;;;;;;23.33;37.25;100994.31;5079111;28;20051;-75
2022/05/12 07:30:14;;;;;;;12.90;4.55;;;;;;;23.24;36.93;100957.22;5078896;28;21362;-74
2022/05/12 07:32:39;;;;;;;14.27;4.07;;;;;;;23.11;39.11;100964.94;5050972;28;20064;-75
2022/05/12 07:35:07;;;;;;;10.27;3.40;;;;;;;23.16;39.60;100957.56;5060117;28;20706;-76
2022/05/12 07:37:33;;;;;;;9.00;3.67;;;;;;;23.01;40.29;100959.09;5074892;28;20058;-75
2022/05/12 07:40:00;;;;;;;14.80;5.25;;;;;;;23.49;38.10;101005.22;5077918;28;20048;-74
2022/05/12 07:42:26;;;;;;;8.90;3.72;;;;;;;23.43;37.17;100968.84;5059253;28;20040;-73
2022/05/12 07:44:53;;;;;;;13.70;4.15;;;;;;;23.42;36.99;100972.50;5058883;28;20043;-73
2022/05/12 07:47:20;;;;;;;7.93;3.83;;;;;;;23.58;36.76;100961.97;5060197;28;20048;-75
2022/05/12 07:49:45;;;;;;;9.52;3.67;;;;;;;23.78;36.49;100978.00;5070405;28;20055;-74
2022/05/12 07:52:14;;;;;;;8.43;3.42;;;;;;;24.08;36.21;100979.34;5073080;28;20988;-74
2022/05/12 07:54:41;;;;;;;5.53;3.60;;;;;;;24.01;38.07;100976.06;5053599;28;20083;-74
2022/05/12 07:57:06;;;;;;;6.53;3.53;;;;;;;24.16;38.45;100990.56;5065868;28;20039;-74
2022/05/12 07:59:34;;;;;;;8.95;3.33;;;;;;;24.11;35.99;100966.63;5046158;28;20055;-74
2022/05/12 08:02:00;;;;;;;18.73;4.78;;;;;;;24.21;37.40;100967.09;5030540;28;20774;-73
2022/05/12 08:04:27;;;;;;;11.82;3.47;;;;;;;24.33;35.81;100950.41;5060001;28;20285;-74
2022/05/12 08:06:53;;;;;;;7.28;4.30;;;;;;;24.35;36.02;100956.56;5073235;28;20047;-76
2022/05/12 08:09:19;;;;;;;5.20;2.75;;;;;;;24.41;35.38;100979.53;5054761;28;20036;-74
2022/05/12 08:11:47;;;;;;;6.28;2.55;;;;;;;24.35;36.90;100948.53;5084436;28;20028;-73
2022/05/12 08:14:16;;;;;;;9.75;3.17;;;;;;;24.74;34.96;100973.47;5064127;28;20052;-73
2022/05/12 08:16:42;;;;;;;14.35;4.18;;;;;;;24.93;34.22;100966.22;5081108;28;20059;-73
2022/05/12 08:19:08;;;;;;;16.08;4.28;;;;;;;25.12;35.06;100970.66;5077863;28;20059;-74
2022/05/12 08:21:35;;;;;;;4.90;3.17;;;;;;;25.09;34.51;100946.66;5079954;28;20725;-75
2022/05/12 08:24:00;;;;;;;5.70;3.50;;;;;;;25.30;34.14;100985.84;5046891;28;20043;-75
2022/05/12 08:26:26;;;;;;;4.72;3.22;;;;;;;25.28;34.28;100952.81;5063475;28;20052;-74
2022/05/12 08:28:53;;;;;;;8.93;4.00;;;;;;;25.58;33.76;100966.44;5062896;28;22616;-73
2022/05/12 08:31:24;;;;;;;11.80;3.67;;;;;;;25.53;34.51;100947.00;5065930;28;20040;-73
2022/05/12 08:33:50;;;;;;;10.98;2.88;;;;;;;25.69;34.56;100952.44;5064561;28;20048;-74
2022/05/12 08:36:17;;;;;;;8.73;3.28;;;;;;;25.86;33.63;100978.38;5077378;28;20036;-74
2022/05/12 08:38:44;;;;;;;9.95;4.57;;;;;;;26.27;34.63;100969.84;5063097;28;20044;-74
2022/05/12 08:41:21;;;;;;;10.35;4.55;;;;;;;26.35;37.28;100937.13;5077087;28;20048;-74
2022/05/12 08:44:23;;;;;;;5.70;3.22;;;;;;;26.32;35.02;100970.47;5056797;28;20535;-74
2022/05/12 08:47:06;;;;;;;4.65;2.92;;;;;;;26.55;33.27;100952.16;5083586;28;20063;-74
2022/05/12 08:49:38;;;;;;;8.20;4.80;;;;;;;26.57;34.88;100963.69;5059882;28;20555;-74
2022/05/12 08:52:23;;;;;;;12.93;3.95;;;;;;;26.93;34.60;100926.50;5063621;28;20047;-74
2022/05/12 08:55:29;;;;;;;8.52;4.10;;;;;;;26.80;32.67;100981.19;5063379;28;20072;-74
2022/05/12 08:58:06;;;;;;;13.15;5.72;;;;;;;27.25;33.75;100941.69;5040476;28;20055;-74
2022/05/12 09:00:47;;;;;;;14.63;4.85;;;;;;;27.31;35.51;100941.34;5062710;28;20055;-75
2022/05/12 09:03:39;;;;;;;11.60;5.95;;;;;;;27.32;33.31;100973.59;5083477;28;20035;-75
2022/05/12 09:06:32;;;;;;;10.05;6.18;;;;;;;27.13;33.83;100927.97;5084171;28;20521;-74
2022/05/12 09:09:30;;;;;;;15.25;8.48;;;;;;;28.11;33.72;100961.47;5065143;28;20056;-74
2022/05/12 09:12:14;;;;;;;10.95;6.28;;;;;;;27.52;33.14;100920.25;5064729;28;20121;-73
2022/05/12 09:14:49;;;;;;;13.95;8.27;;;;;;;27.98;32.62;100929.03;5081704;28;20052;-74
2022/05/12 09:17:23;;;;;;;19.70;9.98;;;;;;;28.55;34.72;100928.00;5053742;28;20050;-75
2022/05/12 09:19:50;;;;;;;9.05;4.97;;;;;;;28.18;34.21;100933.09;5066908;28;20075;-73
2022/05/12 09:22:29;;;;;;;21.77;10.90;;;;;;;28.62;34.15;100955.47;5064565;28;20051;-75
2022/05/12 09:24:55;;;;;;;29.17;11.35;;;;;;;28.46;33.90;100952.03;5061171;28;20525;-74
2022/05/12 09:27:32;;;;;;;17.38;7.03;;;;;;;28.74;34.94;100916.81;5081032;28;20095;-75
2022/05/12 09:29:59;;;;;;;17.73;6.85;;;;;;;28.61;31.63;100957.31;5082433;28;20097;-74
2022/05/12 09:32:32;;;;;;;12.90;7.03;;;;;;;29.35;30.51;100956.81;5061946;28;20056;-74
2022/05/12 09:35:16;;;;;;;18.42;8.35;;;;;;;29.16;32.33;100919.41;5046742;28;20503;-74
2022/05/12 09:37:43;;;;;;;16.33;7.97;;;;;;;28.87;30.82;100932.16;5062709;28;20384;-72
2022/05/12 09:40:35;;;;;;;20.38;9.90;;;;;;;28.58;31.58;100910.72;5080932;28;20044;-74
2022/05/12 09:43:24;;;;;;;26.48;7.85;;;;;;;28.40;29.90;100904.69;5078011;28;20591;-74
2022/05/12 09:46:21;;;;;;;35.83;19.45;;;;;;;29.48;30.87;100945.97;5071175;28;20056;-75
2022/05/12 09:48:51;;;;;;;41.28;20.15;;;;;;;28.94;30.37;100928.06;5080614;28;20131;-75
2022/05/12 09:51:25;;;;;;;95.43;37.60;;;;;;;28.79;29.37;100906.53;5081222;28;20039;-76
2022/05/12 09:53:54;;;;;;;116.93;44.20;;;;;;;29.50;32.64;100906.19;5079636;28;20116;-74
2022/05/12 09:56:33;;;;;;;100.10;39.47;;;;;;;29.22;31.86;100913.53;5052595;28;20082;-75
2022/05/12 09:59:02;;;;;;;115.55;44.78;;;;;;;29.64;31.28;100906.03;5061054;28;20572;-74
2022/05/12 10:01:30;;;;;;;101.03;39.22;;;;;;;29.75;29.18;100916.13;5079621;28;20057;-74
2022/05/12 10:10:09;;;;;;;112.30;37.00;;;;;;;29.32;29.50;100925.44;5076411;28;20522;-74
2022/05/12 10:13:06;;;;;;;128.95;40.90;;;;;;;29.19;28.86;100876.78;5062477;28;20039;-74
2022/05/12 10:15:35;;;;;;;147.27;46.30;;;;;;;30.52;30.98;100915.88;5051330;28;20047;-74
2022/05/12 10:18:25;;;;;;;173.63;46.38;;;;;;;30.76;29.63;100919.41;5061365;28;20805;-74
2022/05/12 10:20:56;;;;;;;154.98;47.90;;;;;;;30.28;27.57;100889.69;5078992;28;20075;-74
2022/05/12 10:23:32;;;;;;;136.90;38.65;;;;;;;30.07;28.69;100873.19;5062212;28;20115;-74
2022/05/12 10:26:10;;;;;;;158.95;45.15;;;;;;;30.06;27.90;100882.25;5081072;28;20058;-74
2022/05/12 10:29:02;;;;;;;162.75;43.53;;;;;;;30.26;29.27;100892.50;5062372;28;20059;-74
2022/05/12 10:31:36;;;;;;;133.02;36.30;;;;;;;29.74;28.83;100884.66;5064309;28;20074;-74
2022/05/12 10:34:17;;;;;;;155.55;41.60;;;;;;;30.05;29.21;100877.84;5081639;28;20047;-75
2022/05/12 10:36:58;;;;;;;117.53;32.40;;;;;;;30.24;27.39;100888.16;5060664;28;20050;-75
2022/05/12 10:39:32;;;;;;;124.30;34.22;;;;;;;29.65;28.66;100851.84;5076386;28;20052;-74
2022/05/12 10:42:16;;;;;;;133.07;37.63;;;;;;;30.17;26.18;100867.94;5081000;28;20036;-75
2022/05/12 10:45:03;;;;;;;129.00;35.72;;;;;;;30.39;27.50;100870.78;5063725;28;20496;-75
2022/05/12 10:47:42;;;;;;;140.57;39.47;;;;;;;30.07;27.01;100855.09;5061390;28;20082;-74
2022/05/12 10:50:31;;;;;;;128.98;36.97;;;;;;;29.90;27.22;100858.19;5060080;28;20561;-76
2022/05/12 10:53:32;;;;;;;116.10;34.08;;;;;;;29.14;27.05;100851.91;5076313;28;20059;-74
2022/05/12 10:56:23;;;;;;;96.45;29.67;;;;;;;29.95;27.14;100853.31;5061534;28;20048;-74
2022/05/12 10:59:12;;;;;;;110.18;32.58;;;;;;;30.20;28.08;100846.88;5077876;28;20083;-75
2022/05/12 11:01:49;;;;;;;118.70;33.10;;;;;;;30.46;27.24;100858.50;5045404;28;20051;-75
2022/05/12 11:04:22;;;;;;;117.25;34.67;;;;;;;28.88;26.65;100828.56;5077172;28;20521;-73
2022/05/12 11:07:15;;;;;;;76.57;27.40;;;;;;;29.61;27.63;100822.44;5079519;28;20664;-74
2022/05/12 11:09:48;;;;;;;74.40;24.95;;;;;;;30.48;28.21;100875.50;5037083;28;20048;-73
2022/05/12 11:12:26;;;;;;;97.88;29.92;;;;;;;30.15;28.36;100834.69;5056233;28;20051;-75
2022/05/12 11:14:57;;;;;;;113.55;33.42;;;;;;;30.02;27.29;100813.13;5078738;28;20059;-74
2022/05/12 11:17:40;;;;;;;87.47;28.92;;;;;;;29.71;27.68;100815.38;5061211;28;20051;-72
2022/05/12 11:20:39;;;;;;;91.65;27.15;;;;;;;29.91;27.44;100821.16;5060246;28;20036;-75
2022/05/12 11:23:26;;;;;;;97.68;30.77;;;;;;;30.15;27.83;100857.22;5053768;28;20800;-73
2022/05/12 11:26:06;;;;;;;106.63;32.22;;;;;;;29.24;29.28;100825.97;5053791;28;20037;-74
2022/05/12 11:29:55;;;;;;;89.20;28.05;;;;;;;29.48;28.39;100813.47;5071308;28;20055;-74
2022/05/12 11:32:23;;;;;;;110.00;32.35;;;;;;;29.84;28.44;100839.69;5068828;28;20044;-73
2022/05/12 11:34:56;;;;;;;109.97;34.17;;;;;;;29.54;28.77;100804.91;5078613;28;20067;-74
2022/05/12 11:37:53;;;;;;;108.43;32.03;;;;;;;29.49;29.79;100796.28;5079122;28;20071;-73
2022/05/12 11:40:48;;;;;;;95.28;26.90;;;;;;;29.42;27.69;100831.88;5076725;28;20048;-78
2022/05/12 11:46:45;;;;;;;93.75;27.63;;;;;;;29.34;27.92;100787.47;5077404;28;20134;-74
2022/05/12 11:49:53;;;;;;;85.28;28.98;;;;;;;29.35;28.71;100810.81;5053341;28;20609;-74
2022/05/12 11:53:08;;;;;;;104.70;32.97;;;;;;;29.48;27.67;100821.59;5022406;28;20526;-74
2022/05/12 11:55:52;;;;;;;149.55;40.30;;;;;;;29.14;27.22;100797.88;5035676;28;20088;-75
2022/05/12 11:58:33;;;;;;;102.15;37.00;;;;;;;29.03;26.98;100819.34;5034552;28;20379;-73
2022/05/12 12:01:03;;;;;;;73.97;30.13;;;;;;;28.60;27.80;100781.84;5039203;28;20046;-74